createdAt,value
2018-02-06T00:00:01.889Z,15.07
2018-02-06T00:02:30.112Z,13.63
2018-02-06T00:04:57.566Z,13.43
2018-02-06T00:07:25.011Z,14.47
2018-02-06T00:09:52.457Z,13.00
2018-02-06T00:12:19.907Z,14.40
2018-02-06T00:14:48.123Z,13.73
2018-02-06T00:17:15.592Z,12.67
2018-02-06T00:19:43.434Z,12.63
2018-02-06T00:22:14.834Z,13.77
2018-02-06T00:24:42.297Z,13.63
2018-02-06T00:27:09.758Z,13.07
2018-02-06T00:29:37.214Z,13.43
2018-02-06T00:32:04.664Z,13.10
2018-02-06T00:34:32.122Z,12.33
2018-02-06T00:36:59.630Z,12.40
2018-02-06T00:39:27.073Z,13.43
2018-02-06T00:41:54.514Z,13.10
2018-02-06T00:44:21.965Z,13.67
2018-02-06T00:46:49.405Z,14.17
2018-02-06T00:49:17.609Z,13.43
2018-02-06T00:51:45.071Z,12.93
2018-02-06T00:54:12.524Z,13.57
2018-02-06T00:56:39.967Z,14.23
2018-02-06T00:59:08.195Z,12.50
2018-02-06T01:01:35.650Z,13.40
2018-02-06T01:04:03.107Z,12.47
2018-02-06T01:06:30.554Z,13.03
2018-02-06T01:08:57.998Z,13.30
2018-02-06T01:11:26.209Z,13.00
2018-02-06T01:13:53.653Z,14.07
2018-02-06T01:16:21.103Z,12.73
2018-02-06T01:18:49.330Z,13.50
2018-02-06T01:21:16.777Z,14.07
2018-02-06T01:23:44.233Z,12.40
2018-02-06T01:26:11.678Z,13.60
2018-02-06T01:28:39.892Z,13.80
2018-02-06T01:31:07.339Z,13.33
2018-02-06T01:33:34.765Z,14.03
2018-02-06T01:36:02.993Z,13.50
2018-02-06T01:38:30.433Z,13.47
2018-02-06T01:40:57.881Z,13.80
2018-02-06T01:43:26.106Z,12.90
2018-02-06T01:45:53.555Z,13.67
2018-02-06T01:48:20.995Z,13.33
2018-02-06T01:50:49.205Z,12.57
2018-02-06T01:53:16.652Z,12.67
2018-02-06T01:55:44.098Z,13.87
2018-02-06T01:58:12.305Z,13.33
2018-02-06T02:00:39.752Z,13.17
2018-02-06T02:03:07.210Z,12.53
2018-02-06T02:05:34.652Z,13.13
2018-02-06T02:08:02.875Z,13.37
2018-02-06T02:10:30.317Z,13.30
2018-02-06T02:12:57.858Z,11.97
2018-02-06T02:15:26.082Z,12.03
2018-02-06T02:17:53.554Z,13.00
2018-02-06T02:20:21.025Z,12.53
2018-02-06T02:22:48.467Z,12.97
2018-02-06T02:25:15.923Z,13.00
2018-02-06T02:27:43.386Z,13.00
2018-02-06T02:30:10.853Z,13.20
2018-02-06T02:32:38.308Z,13.13
2018-02-06T02:35:05.781Z,12.87
2018-02-06T02:37:33.217Z,13.33
2018-02-06T02:40:00.669Z,12.40
2018-02-06T04:40:37.125Z,13.53
2018-02-06T04:43:04.564Z,13.27
2018-02-06T04:45:32.017Z,13.47
2018-02-06T04:48:00.219Z,12.83
2018-02-06T04:50:27.669Z,12.70
2018-02-06T04:52:55.141Z,13.20
2018-02-06T04:55:22.573Z,13.20
2018-02-06T04:57:50.776Z,13.63
2018-02-06T05:00:18.230Z,12.97
2018-02-06T05:02:46.458Z,13.33
2018-02-06T05:05:13.901Z,13.00
2018-02-06T05:07:41.358Z,13.20
2018-02-06T05:10:08.792Z,13.17
2018-02-06T05:12:37.020Z,13.60
2018-02-06T05:15:04.461Z,12.97
2018-02-06T05:17:31.897Z,12.90
2018-02-06T05:20:00.119Z,12.73
2018-02-06T05:22:27.566Z,13.20
2018-02-06T05:24:55.023Z,13.10
2018-02-06T05:27:22.457Z,12.40
2018-02-06T05:29:50.671Z,12.43
2018-02-06T05:32:18.110Z,13.43
2018-02-06T05:34:46.347Z,13.13
2018-02-06T05:37:14.558Z,13.07
2018-02-06T05:39:42.873Z,13.03
2018-02-06T05:42:10.306Z,12.93
2018-02-06T05:44:38.531Z,13.13
2018-02-06T05:47:05.986Z,13.67
2018-02-06T05:49:33.436Z,12.33
2018-02-06T05:52:00.880Z,12.27
2018-02-06T05:54:29.107Z,12.00
2018-02-06T05:56:56.568Z,13.00
2018-02-06T05:59:24.006Z,12.50
2018-02-06T06:01:51.462Z,12.33
2018-02-06T06:04:18.909Z,12.37
2018-02-06T06:06:47.127Z,12.30
2018-02-06T06:09:14.563Z,12.93
2018-02-06T06:11:41.998Z,13.53
2018-02-06T06:14:09.459Z,13.03
2018-02-06T06:16:36.913Z,12.10
2018-02-06T06:19:04.372Z,12.80
2018-02-06T06:21:31.891Z,13.20
2018-02-06T06:23:59.313Z,13.30
2018-02-06T06:26:26.753Z,12.60
2018-02-06T06:28:54.201Z,13.43
2018-02-06T06:31:21.660Z,11.73
2018-02-06T06:33:49.865Z,13.27
2018-02-06T06:36:17.356Z,12.93
2018-02-06T06:38:45.562Z,11.70
2018-02-06T06:41:13.005Z,13.30
2018-02-06T06:43:40.453Z,12.43
2018-02-06T06:46:08.666Z,13.20
2018-02-06T06:48:36.122Z,12.33
2018-02-06T06:51:03.585Z,12.57
2018-02-06T06:53:31.012Z,12.63
2018-02-06T06:55:59.233Z,12.40
2018-02-06T06:58:26.685Z,12.07
2018-02-06T07:00:54.135Z,12.70
2018-02-06T07:03:22.360Z,11.30
2018-02-06T07:05:49.815Z,12.40
2018-02-06T07:08:17.268Z,12.27
2018-02-06T07:10:44.735Z,12.07
2018-02-06T07:13:12.188Z,12.20
2018-02-06T07:15:39.630Z,12.97
2018-02-06T07:18:07.849Z,13.07
2018-02-06T07:20:35.294Z,12.50
2018-02-06T07:23:02.725Z,11.90
2018-02-06T07:25:30.947Z,12.60
2018-02-06T07:27:58.377Z,12.10
2018-02-06T07:30:26.586Z,12.50
2018-02-06T07:32:54.035Z,12.77
2018-02-06T07:35:21.502Z,12.20
2018-02-06T07:37:48.925Z,12.47
2018-02-06T07:40:16.386Z,12.87
2018-02-06T07:42:43.822Z,12.20
2018-02-06T07:45:11.291Z,12.77
2018-02-06T07:47:38.743Z,13.10
2018-02-06T07:50:06.190Z,12.83
2018-02-06T07:52:33.646Z,12.33
2018-02-06T07:55:01.095Z,12.93
2018-02-06T07:57:28.555Z,13.50
2018-02-06T07:59:55.994Z,12.97
2018-02-06T08:02:24.209Z,13.30
2018-02-06T08:04:51.672Z,12.10
2018-02-06T08:07:19.109Z,12.33
2018-02-06T08:09:47.317Z,12.60
2018-02-06T08:12:14.773Z,12.60
2018-02-06T08:14:42.214Z,13.40
2018-02-06T08:17:10.437Z,12.73
2018-02-06T08:19:37.881Z,13.10
2018-02-06T08:22:05.323Z,12.53
2018-02-06T08:24:33.536Z,12.37
2018-02-06T08:27:00.991Z,12.00
2018-02-06T08:29:28.444Z,17.42
2018-02-06T08:31:56.650Z,13.33
2018-02-06T08:34:24.098Z,11.93
2018-02-06T08:36:51.550Z,13.43
2018-02-06T08:39:19.000Z,11.80
2018-02-06T08:41:46.474Z,12.30
2018-02-06T08:44:14.668Z,12.70
2018-02-06T08:46:42.118Z,12.23
2018-02-06T08:49:09.553Z,13.37
2018-02-06T08:51:37.770Z,12.40
2018-02-06T08:54:05.220Z,13.87
2018-02-06T08:56:33.487Z,13.03
2018-02-06T08:59:00.908Z,13.77
2018-02-06T09:01:28.368Z,12.80
2018-02-06T09:03:55.801Z,11.77
2018-02-06T09:06:23.250Z,13.43
2018-02-06T09:08:50.685Z,12.93
2018-02-06T09:11:18.912Z,12.73
2018-02-06T09:13:46.357Z,12.73
2018-02-06T09:16:13.807Z,12.33
2018-02-06T09:18:41.246Z,13.07
2018-02-06T09:21:09.471Z,12.27
2018-02-06T09:23:36.924Z,13.60
2018-02-06T09:26:05.314Z,13.60
2018-02-06T09:28:32.764Z,13.97
2018-02-06T09:31:00.223Z,14.07
2018-02-06T09:33:28.105Z,14.43
2018-02-06T09:35:55.528Z,12.57
2018-02-06T09:38:22.997Z,12.97
2018-02-06T09:40:51.201Z,12.30
2018-02-06T09:43:18.658Z,12.23
2018-02-06T09:45:46.101Z,13.10
2018-02-06T09:48:14.321Z,13.13
2018-02-06T09:50:41.765Z,13.10
2018-02-06T09:53:09.211Z,13.60
2018-02-06T09:55:37.433Z,13.77
2018-02-06T09:58:04.886Z,13.70
2018-02-06T10:00:32.334Z,12.50
2018-02-06T10:02:59.778Z,13.07
2018-02-06T10:05:27.977Z,12.93
2018-02-06T10:07:55.434Z,12.87
2018-02-06T10:10:22.874Z,12.43
2018-02-06T10:12:51.094Z,13.67
2018-02-06T10:15:18.604Z,13.90
2018-02-06T10:17:46.028Z,12.17
2018-02-06T10:20:13.465Z,14.17
2018-02-06T10:22:40.900Z,13.07
2018-02-06T10:25:08.350Z,13.50
2018-02-06T10:27:35.779Z,13.23
2018-02-06T10:30:03.252Z,13.90
2018-02-06T10:32:31.448Z,13.17
2018-02-06T10:34:58.894Z,13.70
2018-02-06T10:37:26.330Z,13.73
2018-02-06T10:39:53.783Z,13.50
2018-02-06T10:42:21.231Z,13.50
2018-02-06T10:44:49.457Z,14.07
2018-02-06T10:47:16.886Z,12.33
2018-02-06T10:49:44.330Z,13.87
2018-02-06T10:52:12.562Z,12.40
2018-02-06T10:54:40.802Z,13.33
2018-02-06T10:57:09.001Z,12.93
2018-02-06T10:59:36.432Z,12.93
2018-02-06T11:02:04.657Z,11.93
2018-02-06T11:04:32.123Z,12.27
2018-02-06T11:06:59.568Z,11.73
2018-02-06T11:09:27.007Z,12.10
2018-02-06T11:11:55.220Z,12.13
2018-02-06T11:14:22.678Z,11.63
2018-02-06T11:16:50.148Z,10.93
2018-02-06T11:19:17.643Z,9.83
2018-02-06T11:21:45.085Z,9.73
2018-02-06T11:24:12.570Z,10.00
2018-02-06T11:26:40.040Z,10.53
2018-02-06T11:29:07.502Z,10.10
2018-02-06T11:31:34.971Z,9.43
2018-02-06T11:34:02.436Z,10.27
2018-02-06T11:36:29.906Z,10.40
2018-02-06T11:38:58.125Z,9.93
2018-02-06T11:41:25.586Z,10.87
2018-02-06T11:43:53.045Z,9.73
2018-02-06T11:46:20.507Z,9.87
2018-02-06T11:48:47.969Z,9.50
2018-02-06T11:51:15.418Z,9.97
2018-02-06T11:53:42.855Z,9.63
2018-02-06T11:56:10.298Z,9.93
2018-02-06T11:58:37.748Z,10.17
2018-02-06T12:01:05.202Z,9.90
2018-02-06T12:03:32.645Z,10.70
2018-02-06T12:06:00.081Z,9.13
2018-02-06T12:08:28.298Z,9.07
2018-02-06T12:10:55.743Z,9.30
2018-02-06T12:13:23.182Z,8.67
2018-02-06T12:15:51.410Z,7.93
2018-02-06T12:18:18.859Z,8.90
2018-02-06T12:20:46.318Z,8.00
2018-02-06T12:23:13.780Z,8.80
2018-02-06T12:25:41.212Z,7.67
2018-02-06T12:28:09.417Z,8.70
2018-02-06T12:30:36.864Z,7.77
2018-02-06T12:33:05.088Z,7.70
2018-02-06T12:35:32.552Z,7.07
2018-02-06T12:38:00.004Z,7.90
2018-02-06T12:40:27.446Z,9.00
2018-02-06T12:42:54.890Z,7.60
2018-02-06T12:45:23.130Z,7.47
2018-02-06T12:47:50.575Z,7.47
2018-02-06T12:50:18.033Z,7.17
2018-02-06T12:52:45.472Z,7.43
2018-02-06T12:55:12.972Z,7.23
2018-02-06T12:57:41.167Z,6.53
2018-02-06T13:00:08.613Z,7.23
2018-02-06T13:02:36.058Z,6.67
2018-02-06T13:05:03.534Z,6.37
2018-02-06T13:07:30.998Z,6.93
2018-02-06T13:09:58.446Z,8.60
2018-02-06T13:12:25.903Z,6.37
2018-02-06T13:14:53.344Z,6.80
2018-02-06T13:17:21.480Z,6.90
2018-02-06T13:19:48.941Z,6.53
2018-02-06T13:22:16.384Z,6.80
2018-02-06T13:24:43.869Z,6.60
2018-02-06T13:27:11.321Z,6.07
2018-02-06T13:29:38.771Z,5.73
2018-02-06T13:32:06.200Z,6.10
2018-02-06T13:34:33.673Z,6.77
2018-02-06T13:37:01.130Z,6.30
2018-02-06T13:39:28.582Z,6.20
2018-02-06T13:41:56.796Z,6.53
2018-02-06T13:44:24.249Z,6.53
2018-02-06T13:46:51.689Z,5.50
2018-02-06T13:49:20.190Z,5.90
2018-02-06T13:51:47.637Z,5.93
2018-02-06T13:54:15.844Z,5.37
2018-02-06T13:56:43.299Z,5.57
2018-02-06T13:59:10.858Z,5.67
2018-02-06T14:01:38.318Z,5.27
2018-02-06T14:04:05.769Z,5.43
2018-02-06T14:06:33.985Z,5.47
2018-02-06T14:09:01.442Z,6.00
2018-02-06T14:11:28.927Z,5.10
2018-02-06T14:13:57.156Z,5.47
2018-02-06T14:16:25.391Z,5.47
2018-02-06T14:18:52.840Z,5.37
2018-02-06T14:21:20.289Z,5.83
2018-02-06T14:23:47.747Z,6.13
2018-02-06T14:26:15.181Z,4.87
2018-02-06T14:28:43.415Z,5.33
2018-02-06T14:31:10.886Z,5.13
2018-02-06T14:33:38.333Z,5.83
2018-02-06T14:36:05.803Z,5.53
2018-02-06T14:38:34.022Z,5.37
2018-02-06T14:41:02.270Z,5.87
2018-02-06T14:43:29.717Z,6.23
2018-02-06T14:45:57.177Z,6.40
2018-02-06T14:48:24.612Z,6.10
2018-02-06T14:50:52.113Z,5.00
2018-02-06T14:53:19.561Z,6.00
2018-02-06T14:55:47.011Z,6.47
2018-02-06T14:58:14.474Z,5.87
2018-02-06T15:00:41.919Z,5.77
2018-02-06T15:03:10.179Z,6.10
2018-02-06T15:05:37.616Z,5.80
2018-02-06T15:08:05.055Z,5.80
2018-02-06T15:10:32.511Z,5.97
2018-02-06T15:12:59.969Z,6.10
2018-02-06T15:15:27.440Z,5.90
2018-02-06T15:17:54.906Z,5.60
2018-02-06T15:20:22.360Z,5.50
2018-02-06T15:22:49.846Z,6.10
2018-02-06T15:25:17.309Z,5.73
2018-02-06T15:27:44.777Z,5.57
2018-02-06T15:30:12.219Z,5.87
2018-02-06T15:32:39.683Z,6.00
2018-02-06T15:35:07.130Z,5.30
2018-02-06T15:37:34.587Z,5.20
2018-02-06T15:40:02.036Z,5.77
2018-02-06T15:42:30.246Z,5.90
2018-02-06T15:44:57.674Z,5.83
2018-02-06T15:47:25.914Z,6.00
2018-02-06T15:49:53.375Z,6.03
2018-02-06T15:52:20.824Z,5.93
2018-02-06T15:54:48.277Z,6.20
2018-02-06T15:57:15.729Z,4.97
2018-02-06T15:59:43.211Z,5.80
2018-02-06T16:02:10.709Z,5.37
2018-02-06T16:04:38.118Z,5.30
2018-02-06T16:07:05.583Z,5.43
2018-02-06T16:09:33.798Z,5.30
2018-02-06T16:12:01.247Z,4.93
2018-02-06T16:14:28.718Z,5.63
2018-02-06T16:16:56.167Z,5.30
2018-02-06T16:19:23.629Z,5.57
2018-02-06T16:21:51.082Z,5.27
2018-02-06T16:24:19.562Z,5.63
2018-02-06T16:26:47.032Z,5.20
2018-02-06T16:29:14.488Z,4.90
2018-02-06T16:31:41.933Z,5.30
2018-02-06T16:34:10.132Z,5.00
2018-02-06T16:36:37.578Z,4.90
2018-02-06T16:39:05.040Z,5.40
2018-02-06T16:41:32.499Z,5.37
2018-02-06T16:44:00.692Z,5.50
2018-02-06T16:46:28.131Z,4.80
2018-02-06T16:48:56.343Z,5.13
2018-02-06T16:51:23.798Z,4.70
2018-02-06T16:53:51.260Z,5.20
2018-02-06T16:56:19.498Z,5.93
2018-02-06T16:58:46.958Z,5.23
2018-02-06T17:01:14.398Z,4.63
2018-02-06T17:03:41.938Z,5.07
2018-02-06T17:06:09.398Z,5.07
2018-02-06T17:08:36.868Z,5.00
2018-02-06T17:11:04.327Z,4.93
2018-02-06T17:13:31.790Z,4.83
2018-02-06T17:15:59.249Z,4.80
2018-02-06T17:18:28.864Z,5.13
2018-02-06T17:20:56.343Z,4.80
2018-02-06T17:23:23.795Z,5.13
2018-02-06T17:25:51.295Z,5.10
2018-02-06T17:28:18.730Z,4.80
2018-02-06T17:30:46.201Z,4.80
2018-02-06T17:33:13.659Z,4.80
2018-02-06T17:35:41.119Z,5.13
2018-02-06T17:38:08.562Z,4.40
2018-02-06T17:40:36.010Z,4.73
2018-02-06T17:43:03.469Z,4.83
2018-02-06T17:45:30.922Z,5.23
2018-02-06T17:47:59.157Z,5.13
2018-02-06T17:50:26.692Z,4.23
2018-02-06T17:52:54.141Z,4.43
2018-02-06T17:55:21.589Z,4.13
2018-02-06T17:57:49.890Z,4.50
2018-02-06T18:00:17.461Z,4.30
2018-02-06T18:02:44.893Z,5.00
2018-02-06T18:05:13.374Z,4.50
2018-02-06T18:07:41.607Z,4.77
2018-02-06T18:10:09.835Z,4.97
2018-02-06T18:12:38.057Z,4.80
2018-02-06T18:15:05.515Z,4.20
2018-02-06T18:17:32.972Z,4.50
2018-02-06T18:20:00.412Z,4.47
2018-02-06T18:22:28.688Z,4.50
2018-02-06T18:24:57.938Z,5.67
2018-02-06T18:27:25.368Z,4.50
2018-02-06T18:29:52.860Z,5.13
2018-02-06T18:32:20.317Z,4.77
2018-02-06T18:34:47.767Z,5.07
2018-02-06T18:37:39.878Z,5.13
2018-02-06T18:40:07.383Z,4.97
2018-02-06T18:42:34.853Z,4.30
2018-02-06T18:45:05.551Z,4.77
2018-02-06T18:47:33.014Z,4.67
2018-02-06T18:50:00.466Z,4.80
2018-02-06T18:52:28.698Z,4.90
2018-02-06T18:54:56.174Z,5.10
2018-02-06T18:57:23.646Z,4.87
2018-02-06T18:59:51.112Z,5.63
2018-02-06T19:02:18.575Z,5.07
2018-02-06T19:04:46.065Z,5.03
2018-02-06T19:07:14.282Z,5.13
2018-02-06T19:09:41.749Z,4.90
2018-02-06T19:12:09.207Z,5.70
2018-02-06T19:14:36.987Z,4.87
2018-02-06T19:17:04.517Z,5.57
2018-02-06T19:19:32.038Z,5.40
2018-02-06T19:21:59.524Z,5.37
2018-02-06T19:24:27.764Z,5.67
2018-02-06T19:26:55.801Z,5.30
2018-02-06T19:29:23.298Z,5.00
2018-02-06T19:31:50.785Z,5.37
2018-02-06T19:34:19.015Z,5.20
2018-02-06T19:36:46.478Z,5.77
2018-02-06T19:39:13.940Z,5.33
2018-02-06T19:41:41.424Z,5.53
2018-02-06T19:44:08.893Z,5.20
2018-02-06T19:46:36.362Z,5.50
2018-02-06T19:49:04.158Z,5.13
2018-02-06T19:51:31.626Z,5.87
2018-02-06T19:53:59.845Z,6.00
2018-02-06T19:56:27.301Z,6.17
2018-02-06T19:58:54.759Z,6.47
2018-02-06T20:01:22.221Z,6.57
2018-02-06T20:03:49.658Z,5.67
2018-02-06T20:06:17.900Z,6.83
2018-02-06T20:08:45.360Z,6.23
2018-02-06T20:11:12.813Z,5.60
2018-02-06T20:13:40.269Z,6.37
2018-02-06T20:16:07.723Z,6.30
2018-02-06T20:18:35.182Z,5.50
2018-02-06T20:21:02.627Z,5.70
2018-02-06T20:23:30.850Z,6.10
2018-02-06T20:25:58.301Z,6.07
2018-02-06T20:28:25.754Z,5.73
2018-02-06T20:30:53.213Z,5.50
2018-02-06T20:33:20.677Z,6.13
2018-02-06T20:35:48.113Z,6.07
2018-02-06T20:38:16.574Z,6.53
2018-02-06T20:40:44.002Z,6.07
2018-02-06T20:43:11.469Z,6.20
2018-02-06T20:45:38.934Z,6.13
2018-02-06T20:48:06.378Z,6.87
2018-02-06T20:50:33.855Z,6.13
2018-02-06T20:53:01.303Z,6.80
2018-02-06T20:55:28.780Z,6.57
2018-02-06T20:57:56.246Z,6.57
2018-02-06T21:00:23.715Z,5.83
2018-02-06T21:02:51.176Z,6.43
2018-02-06T21:05:18.627Z,6.50
2018-02-06T21:07:46.151Z,6.70
2018-02-06T21:10:14.382Z,6.73
2018-02-06T21:12:41.868Z,6.50
2018-02-06T21:15:09.702Z,6.13
2018-02-06T21:17:37.161Z,6.17
2018-02-06T21:20:04.653Z,6.27
2018-02-06T21:22:32.117Z,6.13
2018-02-06T21:25:01.074Z,6.27
2018-02-06T21:27:28.549Z,6.50
2018-02-06T21:29:56.019Z,6.57
2018-02-06T21:32:23.469Z,5.63
2018-02-06T21:34:50.946Z,6.17
2018-02-06T21:37:18.414Z,6.60
2018-02-06T21:39:45.881Z,5.77
2018-02-06T21:42:13.317Z,6.60
2018-02-06T21:44:40.790Z,7.23
2018-02-06T21:47:08.262Z,6.60
2018-02-06T21:49:35.732Z,6.47
2018-02-06T21:52:03.216Z,6.10
2018-02-06T21:54:30.664Z,6.17
2018-02-06T21:56:58.118Z,6.90
2018-02-06T21:59:25.590Z,6.67
2018-02-06T22:01:53.036Z,6.43
2018-02-06T22:04:20.488Z,6.77
2018-02-06T22:06:47.952Z,6.33
2018-02-06T22:09:16.284Z,7.00
2018-02-06T22:11:43.714Z,6.67
2018-02-06T22:14:11.917Z,6.67
2018-02-06T22:16:39.361Z,6.83
2018-02-06T22:19:06.816Z,7.37
2018-02-06T22:21:34.260Z,6.67
2018-02-06T22:24:01.709Z,6.67
2018-02-06T22:26:29.145Z,6.87
2018-02-06T22:28:56.579Z,7.03
2018-02-06T22:31:24.047Z,7.00
2018-02-06T22:33:51.503Z,6.77
2018-02-06T22:36:18.937Z,6.93
2018-02-06T22:38:46.381Z,6.83
2018-02-06T22:41:13.817Z,7.47
2018-02-06T22:43:42.060Z,7.07
2018-02-06T22:46:09.554Z,7.43
2018-02-06T22:48:36.998Z,7.53
2018-02-06T22:51:04.454Z,7.77
2018-02-06T22:53:31.907Z,7.53
2018-02-06T22:55:59.366Z,6.77
2018-02-06T22:58:26.802Z,7.30
2018-02-06T23:00:54.273Z,6.57
2018-02-06T23:03:22.467Z,7.10
2018-02-06T23:05:49.906Z,7.60
2018-02-06T23:08:17.385Z,7.23
2018-02-06T23:10:44.830Z,8.10
2018-02-06T23:13:12.305Z,7.57
2018-02-06T23:15:39.751Z,7.23
2018-02-06T23:18:08.020Z,7.27
2018-02-06T23:20:35.446Z,6.73
2018-02-06T23:23:02.915Z,7.77
2018-02-06T23:25:30.358Z,6.83
2018-02-06T23:27:58.567Z,7.50
2018-02-06T23:30:26.007Z,6.73
2018-02-06T23:32:53.445Z,7.17
2018-02-06T23:35:20.889Z,7.23
2018-02-06T23:37:48.338Z,8.03
2018-02-06T23:40:17.345Z,7.10
2018-02-06T23:42:45.558Z,7.20
2018-02-06T23:45:13.011Z,7.57
2018-02-06T23:47:40.450Z,6.53
2018-02-06T23:50:08.653Z,7.90
2018-02-06T23:52:36.097Z,7.40
2018-02-06T23:55:04.321Z,7.57
2018-02-06T23:57:31.837Z,7.30
2018-02-06T23:59:59.296Z,7.57
